Tiempo atmosférico en la estación meteorológica de Liceras, Soria (1150 m.)



Fecha
DESCASC
Temp. máxima en grados centígrados (hora)
DESCASC
Temp. mínima en grados centígrados (hora)
DESCASC
Temp. media en grados centígrados
DESCASC
Racha de viento máxima en m/sg (hora)
DESCASC
Velocidad máxima media en intervalos de 10 minutos(hora)
DESCASC
Precipitaciones diarias en mm
DESCASC
Precipitaciones de 00:00 a 06:00 en mm
DESCASC
Precipitaciones de 06:00 a 12:00 en mm
DESCASC
Precipitaciones de 12:00 a 18:00 en mm
DESCASC
Precipitaciones de 18:00 a 24:00 en mm
DESCASC
06-07-2020 31 (17:40) 15.2 (05:20) 23.1 10.83 (17:20) 5.83 (18:20) 0 0 0 0 0
05-07-2020 32.3 (18:00) 12.3 (05:10) 22.3 8.89 (16:40) 4.72 (00:10) 0 0 0 0 0
04-07-2020 29.9 (19:00) 11 (06:40) 20.4 8.61 (14:50) 5.56 (11:10) 0 0 0 0 0
03-07-2020 26.3 (18:00) 9.3 (06:40) 17.8 8.61 (18:50) 5.83 (18:50) 0 0 0 0 0
02-07-2020 26.8 (15:50) 15.3 (00:00) 21 13.89 (15:20) 8.33 (16:00) 0 0 0 0 0
01-07-2020 -- (--) -- (--) -- -- (--) -- (--) -- 0 -- 0 0
30-06-2020 31.8 (16:50) 14.4 (00:00) 23.1 12.22 (23:10) 6.39 (15:00) 2.8 0 0 2.8 0
29-06-2020 31.2 (17:40) 16.2 (00:00) 23.7 10 (16:40) 6.11 (18:00) 0 0 0 0 0
28-06-2020 29.6 (18:10) 14.2 (00:00) 21.9 9.44 (17:00) 5.28 (17:40) 0 0 0 0 0
27-06-2020 26.6 (18:00) 13.1 (00:00) 19.9 12.78 (17:00) 7.22 (15:50) 0 0 0 0 0
26-06-2020 27.5 (17:40) 16.9 (00:00) 22.2 16.67 (13:20) 7.22 (20:50) 0 0 0 0 0
25-06-2020 28.2 (14:30) 14.5 (00:00) 21.4 13.33 (18:40) 7.5 (10:00) 1 1 0 0 0
24-06-2020 28.9 (12:50) 18.5 (00:00) 23.7 16.67 (13:50) 9.17 (14:10) 0.6 0 0.4 0.2 0
23-06-2020 32.2 (16:00) 17.6 (00:00) 24.9 12.22 (20:20) 8.33 (20:20) 0 0 0 0 0
22-06-2020 29.9 (19:00) 11 (00:00) 20.4 8.33 (05:10) 5.83 (05:10) 0 0 0 0 0
21-06-2020 27.9 (18:00) 14.5 (00:00) 21.2 10 (16:40) 6.11 (05:00) 0 0 0 0 0
20-06-2020 27.3 (18:00) 12.8 (00:00) 20 11.11 (15:10) 6.67 (14:40) 0 0 0 0 0
19-06-2020 25.3 (18:10) 8.8 (00:00) 17 11.11 (17:30) 6.67 (14:20) 0 0 0 0 0
18-06-2020 23 (17:00) 8.4 (06:10) 15.7 10.56 (15:00) 6.39 (16:40) 0 0 0 0 0
17-06-2020 20.4 (18:10) 8.1 (00:00) 14.3 10.83 (16:50) 5.83 (17:20) 0 0 0 0 0
16-06-2020 19.4 (16:20) 10 (00:00) 14.7 13.89 (17:00) 8.89 (17:00) 0.6 0.2 0 0 0.4
15-06-2020 21.2 (17:10) 8.6 (00:00) 14.9 11.39 (18:20) 6.67 (17:50) 0 0 0 0 0
14-06-2020 20.2 (16:00) 9.3 (00:00) 14.8 10.56 (15:10) 6.67 (16:10) 0 0 0 0 0
13-06-2020 18.2 (20:00) 7.4 (00:00) 12.8 12.22 (09:00) 8.06 (05:20) 0.2 0.2 0 0 0
12-06-2020 15.7 (16:50) 6.1 (00:00) 10.9 16.39 (09:00) 10.56 (17:20) 1.6 0 0 0 1.6
11-06-2020 18.2 (17:20) 10.7 (00:00) 14.5 15.28 (16:40) 10.83 (16:40) 0 0 0 0 0

Gráficas

Temp. máximas Temp. mínimas Temp. medias Precipitaciones Rachas de viento máximas Velocidades máximas media en intervalos de 10 minutos

Datos horarios

Fecha y hora oficial Temperatura (ºC) Velocidad del viento (km/h) Dirección del viento Racha (km/h) Dirección de racha Precipitación (mm) Presión (hPa) Tendencia (hPa) Humedad (%)
2020-07-10 23:00:00 19.7 14 Sudeste 23 Este 0 -- -- 65
2020-07-10 22:00:00 21.8 12 Este 32 Sudeste 0 -- -- 57
2020-07-10 21:00:00 24.9 11 Este 24 Este 0 -- -- 48
2020-07-10 20:00:00 29.1 7 Noroeste 18 Nordeste 0 -- -- 32
2020-07-10 19:00:00 29.8 8 Sudoeste 19 Oeste 0 -- -- 31
2020-07-10 18:00:00 29.3 4 Este 18 Este 0 -- -- 32
2020-07-10 17:00:00 25.9 8 Sudeste 17 Sudeste 0 -- -- 38
2020-07-10 16:00:00 25.8 8 Este 23 Sudeste 0 -- -- 38
2020-07-10 15:00:00 26.3 6 Nordeste 34 Sudoeste 0 -- -- 39
2020-07-10 14:00:00 26.5 11 Este 28 Este 0 -- -- 39
2020-07-10 13:00:00 24.7 16 Este 31 Sudeste 0 -- -- 42
2020-07-10 12:00:00 23.3 20 Este 33 Este 0 -- -- 45
2020-07-10 11:00:00 23.2 17 Sudeste 27 Este 0 -- -- 45
2020-07-10 10:00:00 22 12 Este 18 Este 0 -- -- 47
2020-07-10 09:00:00 20.5 9 Sudeste 15 Este 0 -- -- 52
2020-07-10 08:00:00 17.1 13 Sur 18 Sudeste 0 -- -- 62
2020-07-10 07:00:00 11.1 11 Sudeste 16 Sudeste 0 -- -- 87
2020-07-10 06:00:00 10.8 10 Sudeste 14 Sudeste 0 -- -- 87
2020-07-10 05:00:00 11.7 4 Sudeste 7 Sudeste 0 -- -- 83
2020-07-10 04:00:00 12.8 6 Sudeste 13 Sur 0 -- -- 75
2020-07-10 03:00:00 13.1 9 Sudeste 17 Sudeste 0 -- -- 77
2020-07-10 02:00:00 14.5 15 Sudeste 22 Sudeste 0 -- -- 70
2020-07-10 01:00:00 15.8 7 Sudeste 21 Sur 0 -- -- 65
2020-07-10 00:00:00 17.2 13 Sudeste 29 Sur 0 -- -- 60
2020-07-09 23:00:00 16.7 26 Sudeste 41 Sudeste 0 -- -- 64
2020-07-09 22:00:00 17.4 28 Sudeste 46 Sudeste 0 -- -- 68
2020-07-09 21:00:00 18.3 15 Sur 32 Sudeste 0 -- -- 60
2020-07-09 20:00:00 17.3 20 Sur 23 Sudeste 0 -- -- 72
2020-07-09 19:00:00 15.6 14 Oeste 31 Oeste 1.4 -- -- 83
2020-07-09 18:00:00 15.3 3 Sur 49 Sur 2.6 -- -- 86
2020-07-09 17:00:00 15.9 31 Sudeste 72 Sudeste 0.6 -- -- 77
2020-07-09 16:00:00 28 13 Sur 25 Sudeste 0 -- -- 31
2020-07-09 15:00:00 28.4 16 Sur 28 Sudeste 0 -- -- 30
2020-07-09 14:00:00 28.7 16 Sur 28 Sur 0 -- -- 29
2020-07-09 13:00:00 29.4 6 Sudeste 26 Sudeste 0 -- -- 30
2020-07-09 12:00:00 27.4 15 Sudeste 26 Sudeste 0 -- -- 37
2020-07-09 11:00:00 25.6 23 Sur 35 Sur 0 -- -- 41
2020-07-09 10:00:00 23.9 24 Sudeste 35 Sudeste 0 -- -- 40
2020-07-09 09:00:00 20.6 14 Sudeste 20 Sudeste 0 -- -- 48
2020-07-09 08:00:00 17.4 6 Sudeste 14 Sudeste 0 -- -- 60
2020-07-09 07:00:00 15.8 14 Sudeste 17 Sudeste 0 -- -- 61
2020-07-09 06:00:00 14.1 9 Sudeste 15 Este 0 -- -- 66
2020-07-09 05:00:00 13.9 10 Sudeste 18 Sudeste 0 -- -- 66
2020-07-09 04:00:00 13.5 13 Sudeste 15 Sudeste 0 -- -- 69
2020-07-09 03:00:00 13.6 11 Sudeste 18 Sudeste 0 -- -- 71
2020-07-09 02:00:00 14.7 11 Sudeste 15 Sudeste 0 -- -- 67
2020-07-09 01:00:00 16.2 10 Sur 26 Sur 0 -- -- 64
2020-07-09 00:00:00 17 8 Noroeste 23 Noroeste 0 -- -- 60
2020-07-08 23:00:00 18.8 19 Noroeste 29 Noroeste 0 -- -- 51
2020-07-08 22:00:00 20.9 12 Noroeste 45 Oeste 0 -- -- 43
2020-07-08 21:00:00 24.2 34 Sudeste 59 Sudeste 0 -- -- 36
2020-07-08 20:00:00 25.4 26 Sudeste 39 Sudeste 0 -- -- 35
2020-07-08 19:00:00 28.3 26 Este 40 Este 0 -- -- 28
2020-07-08 18:00:00 27.2 17 Sudeste 36 Sudeste 0 -- -- 30
2020-07-08 17:00:00 26.4 18 Sudeste 32 Este 0.2 -- -- 32
2020-07-08 16:00:00 25.8 14 Sudeste 29 Este 0 -- -- 38
2020-07-08 15:00:00 27.3 10 Sudeste 48 Norte 0 -- -- 38
2020-07-08 14:00:00 27.9 13 Sudeste 22 Este 0 -- -- 32
2020-07-08 13:00:00 29.9 10 Sur 22 Sudeste 0 -- -- 27
2020-07-08 12:00:00 28.2 15 Sudeste 30 Sur 0 -- -- 28
2020-07-08 11:00:00 25.8 18 Sur 38 Sudeste 0 -- -- 31
2020-07-08 10:00:00 25.3 26 Sur 66 Sudoeste 0 -- -- 30
2020-07-08 09:00:00 24.2 20 Sudoeste 33 Sur 0 -- -- 34
2020-07-08 08:00:00 21.4 12 Sudeste 27 Oeste 0 -- -- 41
2020-07-08 07:00:00 21.7 12 Sudoeste 32 Sudoeste 0 -- -- 37
2020-07-08 06:00:00 22 18 Sudeste 35 Sudeste 0 -- -- 39
2020-07-08 05:00:00 20.7 18 Sudeste 29 Sudeste 0 -- -- 41
2020-07-08 04:00:00 18.7 16 Sudeste 24 Sudeste 0 -- -- 46
2020-07-08 03:00:00 17.1 16 Sudeste 20 Sudeste 0 -- -- 50
2020-07-08 02:00:00 17.7 16 Sudeste 23 Sudeste 0 -- -- 48
2020-07-08 01:00:00 19.4 17 Sudeste 23 Este 0 -- -- 43
2020-07-08 00:00:00 21.8 14 Sudeste 22 Sudeste 0 -- -- 40
2020-07-07 23:00:00 23.3 13 Sudeste 22 Este 0 -- -- 40
2020-07-07 22:00:00 26.3 14 Norte 23 Norte 0 -- -- 32
2020-07-07 21:00:00 30.6 7 Nordeste 20 Norte 0 -- -- 27
2020-07-07 20:00:00 32.9 11 Noroeste 28 Noroeste 0 -- -- 24
2020-07-07 19:00:00 33.8 7 Oeste 28 Noroeste 0 -- -- 23
2020-07-07 18:00:00 33.3 8 Norte 28 Norte 0 -- -- 25
2020-07-07 17:00:00 33.1 10 Norte 29 Noroeste 0 -- -- 27
2020-07-07 16:00:00 31.8 15 Noroeste 26 Noroeste 0 -- -- 28
2020-07-07 15:00:00 31.3 12 Norte 33 Noroeste 0 -- -- 29
2020-07-07 14:00:00 31.5 10 Noroeste 24 Noroeste 0 -- -- 32
2020-07-07 13:00:00 29.6 10 Norte 22 Norte 0 -- -- 35
2020-07-07 12:00:00 28.7 10 Norte 18 Norte 0 -- -- 38
2020-07-07 11:00:00 28.5 5 Noroeste 15 Norte 0 -- -- 38
2020-07-07 10:00:00 29.4 3 Noroeste 8 Sudoeste 0 -- -- 31
2020-07-07 09:00:00 26.2 0 Calma 7 Este 0 -- -- 35
2020-07-07 08:00:00 18.5 4 Sudeste 9 Sudeste 0 -- -- 49
2020-07-07 07:00:00 12.8 6 Sudeste 12 Sudeste 0 -- -- 65
2020-07-07 06:00:00 12.4 10 Sudeste 12 Sudeste 0 -- -- 62
2020-07-07 05:00:00 12.9 11 Sudeste 15 Sudeste 0 -- -- 62
2020-07-07 04:00:00 12.9 13 Sudeste 15 Sudeste 0 -- -- 68
2020-07-07 03:00:00 14 11 Sudeste 15 Sudeste 0 -- -- 69
2020-07-07 02:00:00 14.9 13 Sudeste 15 Sudeste 0 -- -- 68
2020-07-07 01:00:00 16.1 9 Sudeste 13 Sudeste 0 -- -- 68
2020-07-07 00:00:00 17.6 11 Sudeste 15 Sudeste 0 -- -- 64
2020-07-06 23:00:00 20.2 10 Sudeste 20 Este 0 -- -- 55
2020-07-06 22:00:00 22.7 13 Este 23 Norte 0 -- -- 47
2020-07-06 21:00:00 27.2 17 Norte 26 Norte 0 -- -- 36
2020-07-06 20:00:00 29.3 17 Norte 27 Noroeste 0 -- -- 34
2020-07-06 19:00:00 30 20 Noroeste 33 Oeste 0 -- -- 33
2020-07-06 18:00:00 30.5 19 Noroeste 39 Norte 0 -- -- 35
2020-07-06 17:00:00 30.8 15 Noroeste 33 Oeste 0 -- -- 34
2020-07-06 16:00:00 29.5 13 Norte 28 Norte 0 -- -- 37
2020-07-06 15:00:00 30 10 Oeste 24 Noroeste 0 -- -- 34
2020-07-06 14:00:00 28.7 15 Norte 24 Norte 0 -- -- 34
2020-07-06 13:00:00 28.3 12 Norte 23 Norte 0 -- -- 35
2020-07-06 12:00:00 27.7 8 Nordeste 18 Sudeste 0 -- -- 36
2020-07-06 11:00:00 26.8 6 Sudeste 19 Sudeste 0 -- -- 38
2020-07-06 10:00:00 24.5 11 Sudeste 20 Este 0 -- -- 43
2020-07-06 09:00:00 22.6 13 Sudeste 24 Sudeste 0 -- -- 48
2020-07-06 08:00:00 19.4 17 Sudeste 26 Sudeste 0 -- -- 56
2020-07-06 07:00:00 15.2 12 Sudeste 20 Sudeste 0 -- -- 73
2020-07-06 06:00:00 15.9 14 Sudeste 17 Sudeste 0 -- -- 72
2020-07-06 05:00:00 15.8 7 Sudeste 14 Sudeste 0 -- -- 71
2020-07-06 04:00:00 16.6 13 Este 16 Este 0 -- -- 67
2020-07-06 03:00:00 16 12 Sudeste 19 Sudeste 0 -- -- 69
2020-07-06 02:00:00 17.2 10 Sudeste 16 Sudeste 0 -- -- 60
2020-07-06 01:00:00 18.6 5 Sudeste 12 Sudeste 0 -- -- 54
2020-07-06 00:00:00 20.5 9 Sudeste 14 Nordeste 0 -- -- 46
2020-07-05 23:00:00 21.9 9 Nordeste 15 Nordeste 0 -- -- 41
2020-07-05 22:00:00 24.6 4 Noroeste 15 Noroeste 0 -- -- 28
2020-07-05 21:00:00 29.4 10 Noroeste 23 Noroeste 0 -- -- 23
2020-07-05 20:00:00 31.5 9 Noroeste 23 Noroeste 0 -- -- 21
2020-07-05 19:00:00 31.3 10 Norte 24 Oeste 0 -- -- 21
2020-07-05 18:00:00 32.3 5 Sudeste 26 Norte 0 -- -- 19
2020-07-05 17:00:00 31.3 13 Norte 32 Sudoeste 0 -- -- 19
2020-07-05 16:00:00 30.8 12 Noroeste 22 Oeste 0 -- -- 19
2020-07-05 15:00:00 30 8 Sudoeste 26 Noroeste 0 -- -- 22
2020-07-05 14:00:00 28.9 17 Noroeste 24 Nordeste 0 -- -- 25
2020-07-05 13:00:00 29 10 Oeste 21 Oeste 0 -- -- 24
2020-07-05 12:00:00 27.7 6 Sudeste 17 Sur 0 -- -- 26
2020-07-05 11:00:00 26.6 9 Este 18 Este 0 -- -- 30
2020-07-05 10:00:00 24.4 13 Sudeste 22 Sudeste 0 -- -- 32
2020-07-05 09:00:00 22.6 14 Sudeste 24 Sudeste 0 -- -- 38
2020-07-05 08:00:00 18 8 Sudeste 17 Sudeste 0 -- -- 46
2020-07-05 07:00:00 13.5 17 Sudeste 18 Sudeste 0 -- -- 55
2020-07-05 06:00:00 13.1 12 Sudeste 19 Sudeste 0 -- -- 56
2020-07-05 05:00:00 12.5 13 Sudeste 16 Sudeste 0 -- -- 59
2020-07-05 04:00:00 13.2 13 Sudeste 17 Sudeste 0 -- -- 57
2020-07-05 03:00:00 13 14 Sudeste 16 Sudeste 0 -- -- 58
2020-07-05 02:00:00 14.7 12 Sudeste 17 Sudeste 0 -- -- 53
2020-07-05 01:00:00 17.9 16 Sudeste 21 Sudeste 0 -- -- 42
2020-07-05 00:00:00 18 13 Sudeste 17 Sudeste 0 -- -- 37
2020-07-04 23:00:00 20 5 Noroeste 12 Norte 0 -- -- 35
2020-07-04 22:00:00 21.6 6 Norte 15 Norte 0 -- -- 26
2020-07-04 21:00:00 26.3 13 Norte 21 Norte 0 -- -- 19
2020-07-04 20:00:00 28 15 Noroeste 22 Noroeste 0 -- -- 14
2020-07-04 19:00:00 29.9 6 Noroeste 23 Noroeste 0 -- -- 13
2020-07-04 18:00:00 29.1 7 Noroeste 28 Noroeste 0 -- -- 13
2020-07-04 17:00:00 27.9 14 Norte 28 Oeste 0 -- -- 14
2020-07-04 16:00:00 27.4 10 Noroeste 26 Noroeste 0 -- -- 15
2020-07-04 15:00:00 26.5 15 Noroeste 31 Oeste 0 -- -- 18
2020-07-04 14:00:00 25.3 12 Norte 28 Noroeste 0 -- -- 18
2020-07-04 13:00:00 24.3 14 Norte 27 Noroeste 0 -- -- 19
2020-07-04 12:00:00 23.2 14 Noroeste 30 Norte 0 -- -- 23
2020-07-04 11:00:00 22.3 18 Noroeste 29 Norte 0 -- -- 24
2020-07-04 10:00:00 21.2 14 Oeste 20 Noroeste 0 -- -- 27
2020-07-04 09:00:00 19.7 12 Oeste 17 Oeste 0 -- -- 40
2020-07-04 08:00:00 17.4 2 Sudoeste 10 Sudoeste 0 -- -- 50
2020-07-04 07:00:00 11.1 0 Calma 8 Sur 0 -- -- 61
2020-07-04 06:00:00 11.9 2 Sudeste 6 Sur 0 -- -- 56
2020-07-04 05:00:00 12 2 Sudeste 7 Este 0 -- -- 54
2020-07-04 04:00:00 12.1 0 Calma 10 Sudoeste 0 -- -- 54
2020-07-04 03:00:00 12.7 2 Oeste 12 Oeste 0 -- -- 55
2020-07-04 02:00:00 13.7 8 Oeste 14 Oeste 0 -- -- 53
2020-07-04 01:00:00 14.7 13 Oeste 18 Oeste 0 -- -- 52
2020-07-04 00:00:00 15 12 Oeste 17 Oeste 0 -- -- 48
2020-07-03 23:00:00 15.7 13 Noroeste 16 Noroeste 0 -- -- 45
2020-07-03 22:00:00 17.3 13 Noroeste 21 Noroeste 0 -- -- 37
2020-07-03 21:00:00 22.1 14 Noroeste 25 Noroeste 0 -- -- 28
2020-07-03 20:00:00 24.3 17 Noroeste 31 Noroeste 0 -- -- 27
2020-07-03 19:00:00 25.3 18 Norte 31 Noroeste 0 -- -- 29
2020-07-03 18:00:00 26.3 10 Norte 27 Noroeste 0 -- -- 28
2020-07-03 17:00:00 25.6 11 Norte 25 Noroeste 0 -- -- 26
2020-07-03 16:00:00 24.1 12 Norte 23 Noroeste 0 -- -- 32
2020-07-03 15:00:00 23.6 11 Noroeste 23 Noroeste 0 -- -- 32
2020-07-03 14:00:00 22.2 4 Oeste 22 Noroeste 0 -- -- 39
2020-07-03 13:00:00 21.6 8 Noroeste 18 Norte 0 -- -- 45
2020-07-03 12:00:00 20.1 7 Sudeste 20 Sudeste 0 -- -- 50
2020-07-03 11:00:00 18.2 12 Sudeste 24 Sudeste 0 -- -- 56
2020-07-03 10:00:00 15.8 15 Este 26 Este 0 -- -- 62
2020-07-03 09:00:00 14.5 15 Sudeste 24 Este 0 -- -- 67
2020-07-03 08:00:00 11.9 12 Sudeste 20 Sur 0 -- -- 78
2020-07-03 07:00:00 9.5 13 Sudeste 22 Sudeste 0 -- -- 86
2020-07-03 06:00:00 9.7 12 Sudeste 18 Sudeste 0 -- -- 85
2020-07-03 05:00:00 10.3 14 Sudeste 20 Sudeste 0 -- -- 84
2020-07-03 04:00:00 10 6 Sudeste 15 Sur 0 -- -- 86
2020-07-03 03:00:00 11.4 11 Sudeste 20 Sudeste 0 -- -- 84
2020-07-03 02:00:00 11.8 9 Sudeste 22 Sudeste 0 -- -- 86
2020-07-03 01:00:00 13.2 17 Sudeste 26 Sudeste 0 -- -- 82
2020-07-03 00:00:00 15.3 15 Este 26 Este 0 -- -- 74
2020-07-02 23:00:00 18.9 13 Norte 23 Noroeste 0 -- -- 54
2020-07-02 22:00:00 20.2 12 Noroeste 28 Noroeste 0 -- -- 37
2020-07-02 21:00:00 22.2 18 Noroeste 37 Noroeste 0 -- -- 39
2020-07-02 20:00:00 24.7 26 Noroeste 40 Oeste 0 -- -- 36
2020-07-02 19:00:00 26.1 25 Oeste 38 Oeste 0 -- -- 34
2020-07-02 18:00:00 26.6 27 Oeste 44 Noroeste 0 -- -- 31
2020-07-02 17:00:00 26.5 25 Oeste 48 Oeste 0 -- -- 30
2020-07-02 16:00:00 26.4 30 Oeste 50 Noroeste 0 -- -- 32
2020-07-02 15:00:00 26.2 23 Noroeste 43 Noroeste 0 -- -- 36
2020-07-02 14:00:00 25.4 22 Noroeste 36 Noroeste 0 -- -- 39
2020-07-02 13:00:00 24.6 21 Noroeste 33 Noroeste 0 -- -- 43
2020-07-02 12:00:00 22.5 16 Noroeste 26 Oeste 0 -- -- 50
2020-07-02 11:00:00 21.5 15 Noroeste 25 Noroeste 0 -- -- 52
2020-07-02 10:00:00 20.5 15 Noroeste 24 Noroeste 0 -- -- 55
2020-07-02 09:00:00 19.2 16 Noroeste 23 Noroeste 0 -- -- 57
2020-07-02 08:00:00 18.2 8 Noroeste 24 Oeste 0 -- -- 58
2020-07-02 07:00:00 16.1 15 Oeste 22 Oeste 0 -- -- 63
2020-07-02 06:00:00 15.8 6 Noroeste 17 Oeste 0 -- -- 62
2020-07-02 05:00:00 17.1 7 Noroeste 19 Oeste 0 -- -- 58
2020-07-02 04:00:00 18 17 Oeste 20 Oeste 0 -- -- 54
2020-07-02 03:00:00 19.3 12 Oeste 18 Oeste 0 -- -- 46
2020-07-02 02:00:00 19.9 16 Oeste 19 Oeste 0 -- -- 44
2020-07-02 01:00:00 20.3 17 Oeste 26 Noroeste 0 -- -- 40
2020-07-02 00:00:00 21 17 Oeste 26 Noroeste 0 -- -- 37
2020-07-01 23:00:00 22.1 10 Oeste 19 Oeste 0 -- -- 36
2020-07-01 22:00:00 23.3 15 Noroeste 31 Noroeste 0 -- -- 34
2020-07-01 21:00:00 26.5 18 Noroeste 37 Oeste 0 -- -- 28
2020-07-01 20:00:00 28.4 19 Oeste 41 Oeste 0 -- -- 26
2020-07-01 19:00:00 29.1 25 Oeste 42 Oeste 0 -- -- 26
2020-07-01 18:00:00 29.3 25 Oeste 39 Noroeste 0 -- -- 28
2020-07-01 17:00:00 29.5 22 Noroeste 42 Oeste 0 -- -- 32
2020-07-01 16:00:00 29.2 26 Oeste 41 Oeste 0 -- -- 33
2020-07-01 15:00:00 29.3 23 Noroeste 42 Oeste 0 -- -- 32
2020-07-01 14:00:00 28.2 21 Noroeste 37 Oeste 0 -- -- 34
2020-07-01 13:00:00 26.4 19 Oeste 32 Oeste 0 -- -- 42
2020-07-01 12:00:00 25.9 18 Noroeste 33 Noroeste 0 -- -- 47
2020-07-01 11:00:00 24.8 23 Noroeste 33 Oeste 0 -- -- 48
2020-07-01 10:00:00 23.4 27 Oeste 33 Oeste 0 -- -- 51
2020-07-01 09:00:00 22 23 Oeste -- -- -- -- -- 54
2020-07-01 08:00:00 20.3 12 Oeste 20 Oeste 0 -- -- 58
2020-07-01 07:00:00 15.9 4 Sur 18 Oeste 0 -- -- 67
2020-07-01 06:00:00 17.1 11 Oeste 15 Oeste 0 -- -- 61
2020-07-01 05:00:00 17.1 7 Sudoeste 14 Sur 0 -- -- 67
2020-07-01 04:00:00 19.3 7 Sudoeste 13 Sur 0 -- -- 59
2020-07-01 03:00:00 19.5 13 Sur 21 Sur 0 -- -- 65
2020-07-01 02:00:00 19.5 17 Sudeste 22 Sudeste 0 -- -- 67
2020-07-01 01:00:00 18.8 15 Sudeste 21 Sur 0 -- -- 69
2020-07-01 00:00:00 19.2 14 Sudeste 44 Sudeste 0 -- -- 68
2020-06-30 23:00:00 19.6 17 Sur 28 Sur 0 -- -- 70
2020-06-30 22:00:00 20.2 15 Nordeste 21 Nordeste 0 -- -- 67
2020-06-30 21:00:00 22.4 8 Este 27 Norte 0 -- -- 57
2020-06-30 20:00:00 25.7 6 Sudeste 22 Este 0 -- -- 53
2020-06-30 19:00:00 26.8 12 Este 28 Nordeste 0 -- -- 45
2020-06-30 18:00:00 26.3 14 Noroeste 31 Noroeste 0.2 -- -- 44
2020-06-30 17:00:00 30.1 16 Sudoeste 28 Sudoeste 0 -- -- 32
2020-06-30 16:00:00 29.3 12 Sur 37 Sur 0 -- -- 42
2020-06-30 15:00:00 23.8 23 Sudoeste 42 Sudoeste 2.6 -- -- 52
2020-06-30 14:00:00 30.6 5 Norte 28 Noroeste 0 -- -- 33
2020-06-30 13:00:00 30.3 9 Norte 34 Norte 0 -- -- 35
2020-06-30 12:00:00 28.9 13 Norte 23 Norte 0 -- -- 42
2020-06-30 11:00:00 28.7 6 Sur 15 Sur 0 -- -- 40
2020-06-30 10:00:00 26.3 10 Sur 17 Este 0 -- -- 45
2020-06-30 09:00:00 22.3 11 Sudeste 17 Este 0 -- -- 63
2020-06-30 08:00:00 18.4 12 Sudeste 18 Sudeste 0 -- -- 77
2020-06-30 07:00:00 14.6 12 Sudeste 17 Este 0 -- -- 89
2020-06-30 06:00:00 14.8 13 Sudeste 22 Sudeste 0 -- -- 89
2020-06-30 05:00:00 15.6 16 Sudeste 26 Sudeste 0 -- -- 85
2020-06-30 04:00:00 16.2 13 Sudeste 22 Sudeste 0 -- -- 82
2020-06-30 03:00:00 16.7 15 Sudeste 22 Sudeste 0 -- -- 83
2020-06-30 02:00:00 16.7 15 Sudeste 20 Sudeste 0 -- -- 83
2020-06-30 01:00:00 17.6 15 Sudeste 21 Sudeste 0 -- -- 79
2020-06-30 00:00:00 18.9 11 Sudeste 23 Sudeste 0 -- -- 73
2020-06-29 23:00:00 21.5 12 Este 27 Este 0 -- -- 64
2020-06-29 22:00:00 23.8 8 Norte 26 Noroeste 0 -- -- 46
2020-06-29 21:00:00 28.1 15 Noroeste 23 Noroeste 0 -- -- 31
2020-06-29 20:00:00 29.9 14 Noroeste 27 Noroeste 0 -- -- 30
2020-06-29 19:00:00 30.5 18 Oeste 34 Oeste 0 -- -- 26
2020-06-29 18:00:00 30.6 22 Noroeste 36 Oeste 0 -- -- 28
2020-06-29 17:00:00 30.7 17 Noroeste 36 Oeste 0 -- -- 31
2020-06-29 16:00:00 29.5 19 Noroeste 31 Noroeste 0 -- -- 35
2020-06-29 15:00:00 28.8 11 Noroeste 31 Noroeste 0 -- -- 38
2020-06-29 14:00:00 28.4 9 Oeste 25 Noroeste 0 -- -- 39
2020-06-29 13:00:00 26.9 10 Oeste 24 Noroeste 0 -- -- 42
2020-06-29 12:00:00 26.3 9 Noroeste 19 Noroeste 0 -- -- 45
2020-06-29 11:00:00 24.4 9 Noroeste 15 Noroeste 0 -- -- 50
2020-06-29 10:00:00 22.9 7 Oeste 13 Oeste 0 -- -- 54
2020-06-29 09:00:00 21.2 4 Norte 8 Norte 0 -- -- 59
2020-06-29 08:00:00 19.5 2 Norte 6 Norte 0 -- -- 62
2020-06-29 07:00:00 16.2 5 Sudoeste 15 Oeste 0 -- -- 74
2020-06-29 06:00:00 17.5 13 Oeste 21 Oeste 0 -- -- 69
2020-06-29 05:00:00 18 13 Oeste 22 Oeste 0 -- -- 67
2020-06-29 04:00:00 19.2 16 Oeste 21 Oeste 0 -- -- 62
2020-06-29 03:00:00 19.4 17 Oeste 22 Oeste 0 -- -- 59
2020-06-29 02:00:00 18.4 0 Calma 9 Oeste 0 -- -- 57
2020-06-29 01:00:00 19.7 8 Sudoeste 12 Sudoeste 0 -- -- 52
2020-06-29 00:00:00 20.7 8 Sudoeste 15 Oeste 0 -- -- 50
2020-06-28 23:00:00 22.1 10 Oeste 18 Noroeste 0 -- -- 46
2020-06-28 22:00:00 23.4 14 Noroeste 18 Noroeste 0 -- -- 42
2020-06-28 21:00:00 27.1 14 Noroeste 28 Noroeste 0 -- -- 36
2020-06-28 20:00:00 28.3 17 Oeste 28 Oeste 0 -- -- 33
2020-06-28 19:00:00 28.8 17 Oeste 28 Noroeste 0 -- -- 34
2020-06-28 18:00:00 28.3 17 Noroeste 32 Noroeste 0 -- -- 39
2020-06-28 17:00:00 28 13 Oeste 34 Oeste 0 -- -- 40
2020-06-28 16:00:00 27.4 12 Oeste 27 Oeste 0 -- -- 42
2020-06-28 15:00:00 25.4 15 Noroeste 30 Noroeste 0 -- -- 46
2020-06-28 14:00:00 26 8 Noroeste 31 Oeste 0 -- -- 44
2020-06-28 13:00:00 25 14 Noroeste 29 Oeste 0 -- -- 49
2020-06-28 12:00:00 23.9 10 Noroeste 18 Noroeste 0 -- -- 51
2020-06-28 11:00:00 22.4 5 Noroeste 18 Oeste 0 -- -- 55
2020-06-28 10:00:00 21.2 7 Noroeste 14 Noroeste 0 -- -- 55
2020-06-28 09:00:00 19 12 Noroeste 18 Oeste 0 -- -- 63
2020-06-28 08:00:00 17 14 Oeste 18 Oeste 0 -- -- 71
2020-06-28 07:00:00 14.4 8 Noroeste 19 Noroeste 0 -- -- 81
2020-06-28 06:00:00 15.3 17 Oeste 22 Oeste 0 -- -- 76
2020-06-28 05:00:00 15.6 13 Oeste 23 Oeste 0 -- -- 74
2020-06-28 04:00:00 16.4 14 Oeste 23 Oeste 0 -- -- 70
2020-06-28 03:00:00 17.2 17 Oeste 23 Oeste 0 -- -- 67
2020-06-28 02:00:00 17.9 17 Oeste 22 Oeste 0 -- -- 63
2020-06-28 01:00:00 18.6 13 Oeste 21 Oeste 0 -- -- 60
2020-06-28 00:00:00 19.1 15 Oeste 20 Oeste 0 -- -- 59
2020-06-27 23:00:00 19.9 9 Oeste 16 Noroeste 0 -- -- 55
2020-06-27 22:00:00 20.5 11 Noroeste 27 Noroeste 0 -- -- 51
2020-06-27 21:00:00 24.5 17 Noroeste 33 Oeste 0 -- -- 41
2020-06-27 20:00:00 25.7 19 Noroeste 33 Oeste 0 -- -- 37
2020-06-27 19:00:00 26.1 21 Noroeste 35 Noroeste 0 -- -- 37
2020-06-27 18:00:00 26.6 21 Noroeste 39 Noroeste 0 -- -- 36
2020-06-27 17:00:00 26.2 25 Noroeste 46 Oeste 0 -- -- 37
2020-06-27 16:00:00 25.1 21 Noroeste 38 Oeste 0 -- -- 42
2020-06-27 15:00:00 24.9 17 Oeste 35 Noroeste 0 -- -- 44
2020-06-27 14:00:00 23.8 21 Noroeste 29 Noroeste 0 -- -- 47
2020-06-27 13:00:00 22.5 17 Noroeste 33 Noroeste 0 -- -- 50
2020-06-27 12:00:00 20.8 19 Noroeste 32 Oeste 0 -- -- 58
2020-06-27 11:00:00 19.9 20 Noroeste 29 Noroeste 0 -- -- 60
2020-06-27 10:00:00 18 21 Oeste 30 Noroeste 0 -- -- 66
2020-06-27 09:00:00 16.5 18 Oeste 26 Oeste 0 -- -- 70
2020-06-27 08:00:00 15 17 Noroeste 25 Oeste 0 -- -- 74
2020-06-27 07:00:00 13.1 8 Oeste 21 Oeste 0 -- -- 80
2020-06-27 06:00:00 13.9 12 Oeste 29 Oeste 0 -- -- 76
2020-06-27 05:00:00 14.6 21 Oeste 29 Oeste 0 -- -- 70
2020-06-27 04:00:00 15.1 12 Oeste 25 Oeste 0 -- -- 65
2020-06-27 03:00:00 15.7 11 Noroeste 21 Oeste 0 -- -- 58
2020-06-27 02:00:00 16.7 7 Oeste 18 Oeste 0 -- -- 48
2020-06-27 01:00:00 17.1 16 Oeste 29 Oeste 0 -- -- 45
2020-06-27 00:00:00 17 19 Oeste 26 Oeste 0 -- -- 43
2020-06-26 23:00:00 18 15 Oeste 20 Oeste 0 -- -- 41
2020-06-26 22:00:00 19.3 13 Noroeste 28 Oeste 0 -- -- 39
2020-06-26 21:00:00 22.9 23 Noroeste 37 Noroeste 0 -- -- 33
2020-06-26 20:00:00 23.5 21 Oeste 32 Oeste 0 -- -- 39
2020-06-26 19:00:00 25.7 19 Oeste 35 Noroeste 0 -- -- 35
2020-06-26 18:00:00 26.7 18 Noroeste 33 Oeste 0 -- -- 33
2020-06-26 17:00:00 25.9 21 Sudoeste 37 Sudoeste 0 -- -- 28
2020-06-26 16:00:00 27.2 15 Oeste 39 Sudoeste 0 -- -- 29
2020-06-26 15:00:00 26.4 26 Sudoeste 40 Sur 0 -- -- 30
2020-06-26 14:00:00 27.3 17 Sudoeste 60 Sudoeste 0 -- -- 29
2020-06-26 13:00:00 24.5 15 Oeste 31 Oeste 0 -- -- 41
2020-06-26 12:00:00 23.3 10 Noroeste 39 Oeste 0 -- -- 53
2020-06-26 11:00:00 24.5 13 Norte 18 Noroeste 0 -- -- 50
2020-06-26 10:00:00 25.3 4 Sur 13 Sur 0 -- -- 42
2020-06-26 09:00:00 21.2 7 Sur 17 Sur 0 -- -- 53
2020-06-26 08:00:00 18.8 10 Sur 18 Sur 0 -- -- 58
2020-06-26 07:00:00 17 9 Sur 24 Sudoeste 0 -- -- 63
2020-06-26 06:00:00 18.1 12 Sur 33 Sur 0 -- -- 60
2020-06-26 05:00:00 18.5 18 Sur 35 Sudeste 0 -- -- 63
2020-06-26 04:00:00 18.4 15 Sudeste 29 Sudeste 0 -- -- 64
2020-06-26 03:00:00 19.5 20 Sur 33 Sur 0 -- -- 61
2020-06-26 02:00:00 18.8 15 Sur 36 Sudeste 0 -- -- 65
2020-06-26 01:00:00 17.9 20 Sudeste 28 Sur 0 -- -- 71
2020-06-26 00:00:00 17.2 14 Sudeste 24 Sudeste 0 -- -- 74
2020-06-25 23:00:00 18.4 17 Sudeste 27 Sudeste 0 -- -- 67
2020-06-25 22:00:00 18.6 15 Sudeste 19 Sudeste 0 -- -- 63
2020-06-25 21:00:00 20.9 10 Sudeste 27 Este 0 -- -- 53
2020-06-25 20:00:00 21.6 12 Sudeste 16 Sudeste 0 -- -- 51
2020-06-25 19:00:00 19.6 15 Sudoeste 48 Oeste 0 -- -- 59
2020-06-25 18:00:00 20.3 0 Calma 31 Noroeste 0 -- -- 55
2020-06-25 17:00:00 23.1 22 Oeste 39 Oeste 0 -- -- 53
2020-06-25 16:00:00 26 13 Norte 18 Norte 0 -- -- 45
2020-06-25 15:00:00 27.2 3 Este 17 Noroeste 0 -- -- 41
2020-06-25 14:00:00 28.1 10 Nordeste 21 Nordeste 0 -- -- 41
2020-06-25 13:00:00 27.7 5 Sudoeste 17 Sudoeste 0 -- -- 38
2020-06-25 12:00:00 24.9 9 Norte 23 Oeste 0 -- -- 46
2020-06-25 11:00:00 23.8 25 Sudoeste 43 Sur 0 -- -- 48
2020-06-25 10:00:00 22.7 27 Sur 46 Sur 0 -- -- 50
2020-06-25 09:00:00 21.7 13 Sur 34 Sur 0 -- -- 49
2020-06-25 08:00:00 19.2 18 Sur 37 Sudeste 0 -- -- 58
2020-06-25 07:00:00 17.3 9 Este 29 Este 0 -- -- 64
2020-06-25 06:00:00 15.5 11 Sudeste 27 Sudeste 0 -- -- 69
2020-06-25 05:00:00 17.4 12 Sur 19 Sur 0 -- -- 60
2020-06-25 04:00:00 14.9 11 Sudeste 21 Sur 0 -- -- 74
2020-06-25 03:00:00 16.3 7 Sudeste 28 Sudeste 0 -- -- 70
2020-06-25 02:00:00 18.2 22 Sur 32 Sudeste 1 -- -- 59
2020-06-25 01:00:00 17.5 6 Sudeste 12 Sudeste 0 -- -- 60
2020-06-25 00:00:00 18.5 5 Sudeste 10 Sudeste 0 -- -- 56
2020-06-24 23:00:00 18.7 8 Sudeste 13 Sur 0 -- -- 53
2020-06-24 22:00:00 22.3 5 Sur 12 Norte 0 -- -- 39
2020-06-24 21:00:00 24.1 4 Sur 15 Sur 0 -- -- 40
2020-06-24 20:00:00 26.6 12 Sur 20 Sudoeste 0 -- -- 36
2020-06-24 19:00:00 28.7 12 Sudoeste 22 Sudoeste 0 -- -- 28
2020-06-24 18:00:00 26.7 13 Sudoeste 23 Sudoeste 0 -- -- 37
2020-06-24 17:00:00 25.3 12 Sudoeste 24 Sur 0 -- -- 36
2020-06-24 16:00:00 22.9 20 Sur 34 Sur 0 -- -- 41
2020-06-24 15:00:00 20.9 19 Sur 56 Sur 0 -- -- 50
2020-06-24 14:00:00 21.5 31 Sur 60 Sudeste 0.2 -- -- 53
2020-06-24 13:00:00 28.4 8 Oeste 17 Oeste 0 -- -- 29
2020-06-24 12:00:00 23.8 0 Calma 36 Oeste 0 -- -- 42
2020-06-24 11:00:00 21.4 19 Oeste 37 Noroeste 0 -- -- 54
2020-06-24 10:00:00 21.7 11 Sur 31 Noroeste 0.4 -- -- 57
2020-06-24 09:00:00 20.2 9 Noroeste 43 Oeste 0 -- -- 57
2020-06-24 08:00:00 22.9 13 Sur 25 Sur 0 -- -- 40
2020-06-24 07:00:00 20.4 10 Sudeste 20 Sudeste 0 -- -- 47
2020-06-24 06:00:00 21 12 Sudeste 27 Sudoeste 0 -- -- 46
2020-06-24 05:00:00 20.9 9 Sur 30 Sudeste 0 -- -- 50
2020-06-24 04:00:00 20.9 20 Sudeste 33 Este 0 -- -- 51
2020-06-24 03:00:00 20.9 20 Sudeste 24 Sudeste 0 -- -- 49
2020-06-24 02:00:00 20.2 12 Sudeste 19 Sudeste 0 -- -- 49
2020-06-24 01:00:00 21.1 10 Sudeste 32 Este 0 -- -- 45
2020-06-24 00:00:00 20.3 13 Este 32 Este 0 -- -- 46
2020-06-23 23:00:00 22 14 Sur 35 Nordeste 0 -- -- 44
2020-06-23 22:00:00 24.2 8 Norte 22 Noroeste 0 -- -- 32
2020-06-23 21:00:00 25.1 15 Noroeste 44 Noroeste 0 -- -- 29
2020-06-23 20:00:00 27.3 9 Sur 20 Sudeste 0 -- -- 35
2020-06-23 19:00:00 29.7 17 Sudeste 28 Sudeste 0 -- -- 30
2020-06-23 18:00:00 29.3 18 Sudeste 29 Norte 0 -- -- 33
2020-06-23 17:00:00 28.9 22 Sudeste 38 Sudeste 0 -- -- 32
2020-06-23 16:00:00 32.2 8 Noroeste 27 Noroeste 0 -- -- 26
2020-06-23 15:00:00 31.8 8 Oeste 23 Noroeste 0 -- -- 23
2020-06-23 14:00:00 31.1 11 Nordeste 22 Nordeste 0 -- -- 26
2020-06-23 13:00:00 29.3 9 Nordeste 18 Norte 0 -- -- 32
2020-06-23 12:00:00 29.8 8 Nordeste 16 Norte 0 -- -- 34
2020-06-23 11:00:00 28.7 8 Noroeste 17 Noroeste 0 -- -- 37
2020-06-23 10:00:00 28.3 6 Oeste 14 Sudoeste 0 -- -- 34
2020-06-23 09:00:00 26.5 10 Sudoeste 16 Sur 0 -- -- 36
2020-06-23 08:00:00 23.6 11 Sur 19 Sur 0 -- -- 39
2020-06-23 07:00:00 20.1 8 Sur 27 Sur 0 -- -- 48
2020-06-23 06:00:00 20.9 20 Sur 30 Sudoeste 0 -- -- 46
2020-06-23 05:00:00 20.1 14 Sur 23 Sudeste 0 -- -- 49
2020-06-23 04:00:00 18.3 17 Sudeste 23 Sudeste 0 -- -- 53
2020-06-23 03:00:00 18.3 16 Sudeste 29 Sudeste 0 -- -- 53
2020-06-23 02:00:00 18.9 18 Sudeste 24 Sudeste 0 -- -- 51
2020-06-23 01:00:00 18.9 15 Sudeste 23 Sur 0 -- -- 50
2020-06-23 00:00:00 17.7 13 Sudeste 23 Sudeste 0 -- -- 55
2020-06-22 23:00:00 19.5 15 Sudeste 24 Este 0 -- -- 46
2020-06-22 22:00:00 22.3 13 Sudeste 14 Sudeste 0 -- -- 37
2020-06-22 21:00:00 27.2 7 Este 20 Este 0 -- -- 30
2020-06-22 20:00:00 29 10 Este 18 Nordeste 0 -- -- 28
2020-06-22 19:00:00 29.9 8 Nordeste 23 Noroeste 0 -- -- 29
2020-06-22 18:00:00 29.8 8 Nordeste 23 Norte 0 -- -- 28
2020-06-22 17:00:00 29.3 12 Norte 22 Nordeste 0 -- -- 28
2020-06-22 16:00:00 28.2 8 Norte 22 Nordeste 0 -- -- 30
2020-06-22 15:00:00 27.7 9 Este 21 Este 0 -- -- 32
2020-06-22 14:00:00 27.1 8 Este 18 Sudeste 0 -- -- 31
2020-06-22 13:00:00 25.9 10 Este 24 Sudeste 0 -- -- 39
2020-06-22 12:00:00 24.4 11 Este 24 Este 0 -- -- 44
2020-06-22 11:00:00 24.2 8 Este 17 Este 0 -- -- 44
2020-06-22 10:00:00 22.2 9 Este 21 Sudeste 0 -- -- 54
2020-06-22 09:00:00 18.5 15 Sudeste 29 Sudeste 0 -- -- 63
2020-06-22 08:00:00 15.8 20 Sudeste 28 Sudeste 0 -- -- 71
2020-06-22 07:00:00 11.2 16 Sudeste 18 Sudeste 0 -- -- 85
2020-06-22 06:00:00 12.4 16 Sudeste 30 Sudeste 0 -- -- 78
2020-06-22 05:00:00 13.6 18 Sudeste 23 Sudeste 0 -- -- 74
2020-06-22 04:00:00 13.7 12 Sudeste 22 Sudeste 0 -- -- 74
2020-06-22 03:00:00 13.3 14 Sudeste 21 Sudeste 0 -- -- 77
2020-06-22 02:00:00 14.4 17 Sudeste 21 Sur 0 -- -- 73
2020-06-22 01:00:00 15.9 18 Sur 26 Sudeste 0 -- -- 68
2020-06-22 00:00:00 16.5 19 Sudeste 26 Sudeste 0 -- -- 65
2020-06-21 23:00:00 19 18 Este 27 Este 0 -- -- 53
2020-06-21 22:00:00 21.3 4 Norte 13 Norte 0 -- -- 33
2020-06-21 21:00:00 25.3 11 Norte 21 Noroeste 0 -- -- 27
2020-06-21 20:00:00 27 13 Norte 24 Norte 0 -- -- 24
2020-06-21 19:00:00 27.5 15 Noroeste 31 Oeste 0 -- -- 26
2020-06-21 18:00:00 27.9 18 Noroeste 33 Noroeste 0 -- -- 26
2020-06-21 17:00:00 27.7 15 Noroeste 36 Oeste 0 -- -- 28
2020-06-21 16:00:00 27 16 Noroeste 34 Noroeste 0 -- -- 31
2020-06-21 15:00:00 26.3 19 Noroeste 32 Noroeste 0 -- -- 29
2020-06-21 14:00:00 25.2 16 Noroeste 27 Noroeste 0 -- -- 34
2020-06-21 13:00:00 23.7 17 Noroeste 28 Oeste 0 -- -- 39
2020-06-21 12:00:00 22.4 18 Noroeste 27 Noroeste 0 -- -- 43
2020-06-21 11:00:00 21.1 19 Noroeste 26 Noroeste 0 -- -- 44
2020-06-21 10:00:00 19.7 18 Noroeste 26 Noroeste 0 -- -- 51
2020-06-21 09:00:00 17.3 22 Oeste 33 Noroeste 0 -- -- 54
2020-06-21 08:00:00 16.6 11 Noroeste 17 Noroeste 0 -- -- 51
2020-06-21 07:00:00 14.5 7 Oeste 23 Oeste 0 -- -- 54
2020-06-21 06:00:00 15.3 18 Oeste 27 Oeste 0 -- -- 51
2020-06-21 05:00:00 16 22 Oeste 32 Oeste 0 -- -- 50
2020-06-21 04:00:00 15.5 7 Oeste 15 Oeste 0 -- -- 52
2020-06-21 03:00:00 16.6 10 Oeste 18 Oeste 0 -- -- 48
2020-06-21 02:00:00 17.5 17 Oeste 21 Oeste 0 -- -- 45
2020-06-21 01:00:00 17.2 6 Sudoeste 11 Sudeste 0 -- -- 47
2020-06-21 00:00:00 17.3 0 Calma 8 Oeste 0 -- -- 46
2020-06-20 23:00:00 19.3 5 Noroeste 18 Noroeste 0 -- -- 40
2020-06-20 22:00:00 20.5 15 Noroeste 18 Noroeste 0 -- -- 39
2020-06-20 21:00:00 24.4 14 Noroeste 28 Noroeste 0 -- -- 34
2020-06-20 20:00:00 26.7 13 Noroeste 32 Oeste 0 -- -- 30
2020-06-20 19:00:00 27 19 Oeste 33 Oeste 0 -- -- 26
2020-06-20 18:00:00 27.3 15 Noroeste 35 Noroeste 0 -- -- 26
2020-06-20 17:00:00 26.8 16 Noroeste 38 Noroeste 0 -- -- 27
2020-06-20 16:00:00 26 22 Noroeste 40 Noroeste 0 -- -- 29
2020-06-20 15:00:00 25.1 19 Noroeste 39 Oeste 0 -- -- 32
2020-06-20 14:00:00 24.4 17 Noroeste 32 Noroeste 0 -- -- 33
2020-06-20 13:00:00 23.5 17 Noroeste 31 Noroeste 0 -- -- 37
2020-06-20 12:00:00 22.7 12 Noroeste 23 Noroeste 0 -- -- 38
2020-06-20 11:00:00 21.3 14 Noroeste 27 Noroeste 0 -- -- 41
2020-06-20 10:00:00 19.6 16 Oeste 21 Oeste 0 -- -- 44
2020-06-20 09:00:00 17.9 16 Oeste 24 Oeste 0 -- -- 47
2020-06-20 08:00:00 16.9 13 Oeste 18 Oeste 0 -- -- 48
2020-06-20 07:00:00 13.2 6 Sudoeste 11 Oeste 0 -- -- 58
2020-06-20 06:00:00 13.6 7 Oeste 11 Oeste 0 -- -- 55
2020-06-20 05:00:00 14.7 6 Sudoeste 14 Oeste 0 -- -- 50
2020-06-20 04:00:00 14.8 7 Oeste 21 Oeste 0 -- -- 48
2020-06-20 03:00:00 15.8 15 Oeste 21 Oeste 0 -- -- 44
2020-06-20 02:00:00 15.6 10 Oeste 12 Oeste 0 -- -- 45
2020-06-20 01:00:00 15 8 Sudoeste 10 Sudoeste 0 -- -- 44
2020-06-20 00:00:00 15.5 4 Sudeste 13 Oeste 0 -- -- 44
2020-06-19 23:00:00 17.4 12 Noroeste 17 Noroeste 0 -- -- 37
2020-06-19 22:00:00 18.9 14 Noroeste 16 Noroeste 0 -- -- 35
2020-06-19 21:00:00 22.6 10 Noroeste 27 Noroeste 0 -- -- 32
2020-06-19 20:00:00 24.3 15 Noroeste 27 Oeste 0 -- -- 27
2020-06-19 19:00:00 25.1 15 Oeste 33 Oeste 0 -- -- 28
2020-06-19 18:00:00 24.6 21 Oeste 40 Noroeste 0 -- -- 29
2020-06-19 17:00:00 24.4 21 Oeste 38 Noroeste 0 -- -- 31
2020-06-19 16:00:00 24 23 Oeste 36 Oeste 0 -- -- 31
2020-06-19 15:00:00 23.7 16 Oeste 39 Oeste 0 -- -- 34
2020-06-19 14:00:00 22.7 23 Noroeste 37 Oeste 0 -- -- 38
2020-06-19 13:00:00 22 19 Noroeste 36 Oeste 0 -- -- 40
2020-06-19 12:00:00 20.9 8 Noroeste 21 Oeste 0 -- -- 42
2020-06-19 11:00:00 20.1 10 Noroeste 21 Noroeste 0 -- -- 42
2020-06-19 10:00:00 18.3 7 Noroeste 13 Noroeste 0 -- -- 52
2020-06-19 09:00:00 15.8 9 Noroeste 16 Noroeste 0 -- -- 57
2020-06-19 08:00:00 14.8 2 Este 6 Este 0 -- -- 73
2020-06-19 07:00:00 9.4 4 Sudeste 9 Sudoeste 0 -- -- 89
2020-06-19 06:00:00 9.9 7 Sur 15 Sudeste 0 -- -- 92
2020-06-19 05:00:00 9.1 12 Sudeste 20 Sudeste 0 -- -- 89
2020-06-19 04:00:00 9.9 13 Sudeste 18 Sudeste 0 -- -- 86
2020-06-19 03:00:00 11.4 13 Sudeste 19 Sudeste 0 -- -- 81
2020-06-19 02:00:00 12.3 13 Sudeste 17 Sudeste 0 -- -- 77
2020-06-19 01:00:00 13.1 14 Sudeste 26 Sudeste 0 -- -- 74
2020-06-19 00:00:00 12.5 14 Sudeste 24 Este 0 -- -- 78
2020-06-18 23:00:00 15.2 17 Este 22 Este 0 -- -- 68
2020-06-18 22:00:00 16 6 Nordeste 9 Norte 0 -- -- 55
2020-06-18 21:00:00 17.1 9 Noroeste 21 Noroeste 0 -- -- 53
2020-06-18 20:00:00 21 15 Noroeste 26 Noroeste 0 -- -- 41
2020-06-18 19:00:00 22.4 15 Noroeste 35 Noroeste 0 -- -- 39
2020-06-18 18:00:00 21.2 12 Noroeste 36 Noroeste 0 -- -- 41
2020-06-18 17:00:00 23 17 Oeste 38 Oeste 0 -- -- 36
2020-06-18 16:00:00 22.4 22 Noroeste 37 Noroeste 0 -- -- 38
2020-06-18 15:00:00 21.6 22 Noroeste 38 Oeste 0 -- -- 42
2020-06-18 14:00:00 20.9 23 Oeste 32 Noroeste 0 -- -- 41
2020-06-18 13:00:00 18.9 15 Oeste 30 Noroeste 0 -- -- 50
2020-06-18 12:00:00 18.1 14 Noroeste 28 Noroeste 0 -- -- 47
2020-06-18 11:00:00 18.2 14 Noroeste 23 Oeste 0 -- -- 48
2020-06-18 10:00:00 17.2 9 Oeste 17 Noroeste 0 -- -- 53
2020-06-18 09:00:00 15 6 Noroeste 10 Noroeste 0 -- -- 58
2020-06-18 08:00:00 11.6 2 Sudeste 3 Sudeste 0 -- -- 77
2020-06-18 07:00:00 8.5 4 Sur 6 Sur 0 -- -- 85
2020-06-18 06:00:00 8.5 2 Sudeste 8 Sudeste 0 -- -- 86
2020-06-18 05:00:00 9 9 Sudeste 17 Sudeste 0 -- -- 86
2020-06-18 04:00:00 9.7 12 Sudeste 17 Sudeste 0 -- -- 86
2020-06-18 03:00:00 11.3 13 Sudeste 17 Sudeste 0 -- -- 80
2020-06-18 02:00:00 12.1 14 Sudeste 22 Sudeste 0 -- -- 77
2020-06-18 01:00:00 12.1 13 Sudeste 22 Sudeste 0 -- -- 74
2020-06-18 00:00:00 11.9 6 Este 13 Este 0 -- -- 68
2020-06-17 23:00:00 13 6 Sudeste 9 Sur 0 -- -- 59
2020-06-17 22:00:00 14.1 0 Calma 4 Noroeste 0 -- -- 54
2020-06-17 21:00:00 15.5 5 Norte 15 Noroeste 0 -- -- 51
2020-06-17 20:00:00 16.9 12 Noroeste 26 Noroeste 0 -- -- 45
2020-06-17 19:00:00 18.2 19 Noroeste 29 Noroeste 0 -- -- 41
2020-06-17 18:00:00 20.1 15 Noroeste 34 Norte 0 -- -- 38
2020-06-17 17:00:00 18.5 17 Noroeste 39 Noroeste 0 -- -- 40
2020-06-17 16:00:00 18.1 14 Noroeste 35 Noroeste 0 -- -- 41
2020-06-17 15:00:00 17.7 14 Norte 31 Oeste 0 -- -- 47
2020-06-17 14:00:00 16.7 19 Noroeste 32 Noroeste 0 -- -- 50
2020-06-17 13:00:00 16.6 17 Noroeste 28 Noroeste 0 -- -- 55
2020-06-17 12:00:00 15.8 17 Noroeste 24 Noroeste 0 -- -- 63
2020-06-17 11:00:00 13.5 13 Oeste 23 Oeste 0 -- -- 67
2020-06-17 10:00:00 11.6 19 Noroeste 27 Noroeste 0 -- -- 76
2020-06-17 09:00:00 11.2 16 Oeste 24 Oeste 0 -- -- 73
2020-06-17 08:00:00 9.4 15 Oeste 21 Oeste 0 -- -- 80
2020-06-17 07:00:00 8.1 15 Oeste 21 Oeste 0 -- -- 83
2020-06-17 06:00:00 9.1 17 Oeste 23 Oeste 0 -- -- 79
2020-06-17 05:00:00 9.7 14 Oeste 23 Oeste 0 -- -- 78
2020-06-17 04:00:00 9.9 14 Noroeste 20 Oeste 0 -- -- 80
2020-06-17 03:00:00 10.6 11 Oeste 17 Oeste 0 -- -- 78
2020-06-17 02:00:00 10.8 13 Oeste 22 Oeste 0 -- -- 81
2020-06-17 01:00:00 11.8 14 Oeste 21 Oeste 0 -- -- 77
2020-06-17 00:00:00 11.6 12 Oeste 16 Oeste 0 -- -- 83
2020-06-16 23:00:00 11.6 4 Sudoeste 16 Sudoeste 0 -- -- 84
2020-06-16 22:00:00 11.8 4 Oeste 23 Noroeste 0.2 -- -- 84
2020-06-16 21:00:00 14.6 9 Oeste 21 Oeste 0 -- -- 71
2020-06-16 20:00:00 15.6 14 Oeste 24 Oeste 0 -- -- 65
2020-06-16 19:00:00 14.9 8 Sudoeste 42 Noroeste 0.2 -- -- 71
2020-06-16 18:00:00 15.7 18 Noroeste 40 Oeste 0 -- -- 59
2020-06-16 17:00:00 16.4 32 Oeste 50 Oeste 0 -- -- 52
2020-06-16 16:00:00 18.4 19 Oeste 31 Oeste 0 -- -- 47
2020-06-16 15:00:00 16.6 22 Oeste 32 Oeste 0 -- -- 49
2020-06-16 14:00:00 17.3 20 Noroeste 33 Oeste 0 -- -- 50
2020-06-16 13:00:00 16.7 25 Oeste 41 Noroeste 0 -- -- 55
2020-06-16 12:00:00 15.4 21 Noroeste 34 Oeste 0 -- -- 60
2020-06-16 11:00:00 14.5 21 Oeste 36 Oeste 0 -- -- 61
2020-06-16 10:00:00 13.3 21 Oeste 30 Oeste 0 -- -- 70
2020-06-16 09:00:00 11.4 18 Oeste 27 Oeste 0 -- -- 78
2020-06-16 08:00:00 10 21 Oeste 31 Oeste 0 -- -- 88
2020-06-16 07:00:00 10 23 Oeste 31 Oeste 0 -- -- 88
2020-06-16 06:00:00 10.2 18 Oeste 33 Oeste 0 -- -- 88
2020-06-16 05:00:00 10.5 21 Oeste 30 Oeste 0 -- -- 88
2020-06-16 04:00:00 10.5 16 Oeste 28 Noroeste 0 -- -- 91
2020-06-16 03:00:00 10.5 17 Noroeste 28 Oeste 0.2 -- -- 91
2020-06-16 02:00:00 11.3 17 Noroeste 28 Oeste 0 -- -- 86
2020-06-16 01:00:00 12.9 19 Oeste 28 Noroeste 0 -- -- 73
2020-06-16 00:00:00 14 14 Noroeste 19 Noroeste 0 -- -- 65
2020-06-15 23:00:00 14.2 12 Noroeste 16 Noroeste 0 -- -- 64
2020-06-15 22:00:00 15.3 13 Noroeste 21 Noroeste 0 -- -- 62
2020-06-15 21:00:00 16.6 13 Norte 24 Noroeste 0 -- -- 58
2020-06-15 20:00:00 17.9 18 Noroeste 32 Noroeste 0 -- -- 54
2020-06-15 19:00:00 20.6 22 Noroeste 41 Noroeste 0 -- -- 47
2020-06-15 18:00:00 20.1 19 Noroeste 35 Oeste 0 -- -- 49
2020-06-15 17:00:00 19.8 19 Noroeste 32 Noroeste 0 -- -- 51
2020-06-15 16:00:00 20.5 16 Noroeste 27 Noroeste 0 -- -- 50
2020-06-15 15:00:00 18.8 15 Norte 26 Noroeste 0 -- -- 53
2020-06-15 14:00:00 18.6 15 Noroeste 25 Oeste 0 -- -- 55
2020-06-15 13:00:00 17.8 13 Noroeste 25 Noroeste 0 -- -- 60
2020-06-15 12:00:00 16.2 14 Noroeste 23 Oeste 0 -- -- 61
2020-06-15 11:00:00 15.3 14 Oeste 24 Oeste 0 -- -- 65
2020-06-15 10:00:00 14.1 13 Noroeste 23 Noroeste 0 -- -- 70
2020-06-15 09:00:00 12.2 14 Noroeste 25 Oeste 0 -- -- 76
2020-06-15 08:00:00 11.9 18 Noroeste 29 Oeste 0 -- -- 75
2020-06-15 07:00:00 9.4 13 Oeste 18 Noroeste 0 -- -- 83
2020-06-15 06:00:00 8.7 9 Noroeste 20 Noroeste 0 -- -- 85
2020-06-15 05:00:00 10 12 Noroeste 21 Oeste 0 -- -- 79
2020-06-15 04:00:00 11 6 Oeste 13 Oeste 0 -- -- 73
2020-06-15 03:00:00 11.2 5 Sudoeste 12 Oeste 0 -- -- 71
2020-06-15 02:00:00 11.8 10 Oeste 18 Oeste 0 -- -- 68
2020-06-15 01:00:00 12.1 14 Noroeste 21 Noroeste 0 -- -- 65
2020-06-15 00:00:00 12.8 8 Oeste 13 Oeste 0 -- -- 64
2020-06-14 23:00:00 13 8 Noroeste 10 Noroeste 0 -- -- 63
2020-06-14 22:00:00 13.6 7 Norte 17 Noroeste 0 -- -- 60
2020-06-14 21:00:00 16.3 14 Norte 23 Noroeste 0 -- -- 51
2020-06-14 20:00:00 16.8 15 Noroeste 27 Oeste 0 -- -- 50
2020-06-14 19:00:00 18.8 18 Noroeste 27 Noroeste 0 -- -- 43
2020-06-14 18:00:00 19 23 Noroeste 33 Noroeste 0 -- -- 42
2020-06-14 17:00:00 19.4 17 Oeste 38 Oeste 0 -- -- 40
2020-06-14 16:00:00 20.2 20 Oeste 38 Noroeste 0 -- -- 42
2020-06-14 15:00:00 18.2 22 Noroeste 36 Noroeste 0 -- -- 47
2020-06-14 14:00:00 17.5 18 Noroeste 30 Noroeste 0 -- -- 50
2020-06-14 13:00:00 16.2 14 Noroeste 24 Oeste 0 -- -- 54
2020-06-14 12:00:00 16.7 9 Noroeste 22 Noroeste 0 -- -- 57
2020-06-14 11:00:00 14.9 10 Noroeste 23 Noroeste 0 -- -- 59
2020-06-14 10:00:00 13.6 11 Noroeste 19 Oeste 0 -- -- 60
2020-06-14 09:00:00 11.5 12 Noroeste 18 Oeste 0 -- -- 72
2020-06-14 08:00:00 10 3 Noroeste 8 Oeste 0 -- -- 80
2020-06-14 07:00:00 9.6 6 Oeste 12 Oeste 0 -- -- 81
2020-06-14 06:00:00 9.7 4 Noroeste 13 Oeste 0 -- -- 81
2020-06-14 05:00:00 10.1 10 Oeste 16 Oeste 0 -- -- 80
2020-06-14 04:00:00 10.2 9 Oeste 12 Oeste 0 -- -- 80
2020-06-14 03:00:00 10.3 7 Noroeste 12 Noroeste 0 -- -- 79
2020-06-14 02:00:00 10.3 6 Oeste 15 Oeste 0 -- -- 78
2020-06-14 01:00:00 11.2 8 Oeste 14 Oeste 0 -- -- 74
2020-06-14 00:00:00 10.8 10 Oeste 15 Oeste 0 -- -- 75
2020-06-13 23:00:00 11.7 11 Oeste 16 Oeste 0 -- -- 68
2020-06-13 22:00:00 12.8 16 Noroeste 24 Noroeste 0 -- -- 60
2020-06-13 21:00:00 13.9 11 Noroeste 28 Oeste 0 -- -- 55
2020-06-13 20:00:00 18.2 11 Sudoeste 22 Noroeste 0 -- -- 41
2020-06-13 19:00:00 16.4 16 Oeste 35 Oeste 0 -- -- 45
2020-06-13 18:00:00 16.5 17 Oeste 33 Noroeste 0 -- -- 46
2020-06-13 17:00:00 16.1 19 Noroeste 36 Oeste 0 -- -- 47
2020-06-13 16:00:00 14.9 15 Noroeste 36 Noroeste 0 -- -- 51
2020-06-13 15:00:00 15.5 19 Noroeste 32 Oeste 0 -- -- 50
2020-06-13 14:00:00 14.5 19 Noroeste 34 Noroeste 0 -- -- 53
2020-06-13 13:00:00 13.2 22 Noroeste 35 Oeste 0 -- -- 59
2020-06-13 12:00:00 13.1 22 Noroeste 34 Oeste 0 -- -- 59
2020-06-13 11:00:00 10.9 19 Oeste 37 Oeste 0 -- -- 72
2020-06-13 10:00:00 9.1 27 Oeste 40 Oeste 0 -- -- 79
2020-06-13 09:00:00 8 26 Oeste 44 Oeste 0 -- -- 87
2020-06-13 08:00:00 7.6 26 Oeste 36 Oeste 0 -- -- 90
2020-06-13 07:00:00 7.5 26 Oeste 37 Oeste 0 -- -- 90
2020-06-13 06:00:00 7.5 26 Oeste 40 Oeste 0 -- -- 89
2020-06-13 05:00:00 8 26 Oeste 40 Oeste 0 -- -- 89
2020-06-13 04:00:00 8.2 23 Oeste 40 Oeste 0 -- -- 88
2020-06-13 03:00:00 8.2 21 Oeste 41 Oeste 0 -- -- 88
2020-06-13 02:00:00 8.7 26 Oeste 40 Oeste 0 -- -- 85
2020-06-13 01:00:00 8.6 24 Oeste 37 Oeste 0.2 -- -- 84
2020-06-13 00:00:00 8.6 12 Oeste 36 Oeste 0 -- -- 82
2020-06-12 23:00:00 9 26 Oeste 39 Oeste 0 -- -- 77
2020-06-12 22:00:00 9.3 24 Oeste 39 Oeste 0 -- -- 78
2020-06-12 21:00:00 9.8 21 Sudoeste 41 Sudoeste 0 -- -- 79
2020-06-12 20:00:00 11.1 25 Oeste 49 Oeste 0.4 -- -- 78
2020-06-12 19:00:00 12.4 19 Oeste 49 Oeste 1.2 -- -- 79
2020-06-12 18:00:00 14.2 32 Oeste 54 Oeste 0 -- -- 52
2020-06-12 17:00:00 15.3 30 Oeste 52 Oeste 0 -- -- 48
2020-06-12 16:00:00 13.6 33 Oeste 53 Oeste 0 -- -- 53
2020-06-12 15:00:00 13.2 33 Oeste 51 Oeste 0 -- -- 57
2020-06-12 14:00:00 10.9 27 Oeste 40 Oeste 0 -- -- 71
2020-06-12 13:00:00 11.1 27 Oeste 47 Oeste 0 -- -- 66
2020-06-12 12:00:00 8.8 27 Oeste 42 Oeste 0 -- -- 79
2020-06-12 11:00:00 8.5 27 Oeste 49 Sudoeste 0 -- -- 75
2020-06-12 10:00:00 7.8 32 Oeste 50 Oeste 0 -- -- 76
2020-06-12 09:00:00 7.2 33 Oeste 59 Sudoeste 0 -- -- 78
2020-06-12 08:00:00 6.9 32 Oeste 53 Oeste 0 -- -- 76
2020-06-12 07:00:00 6.9 27 Oeste 45 Oeste 0 -- -- 74
2020-06-12 06:00:00 6.3 27 Oeste 51 Oeste 0 -- -- 75
2020-06-12 05:00:00 6.4 30 Oeste 49 Oeste 0 -- -- 76
2020-06-12 04:00:00 7.1 27 Oeste 46 Oeste 0 -- -- 74
2020-06-12 03:00:00 8.1 26 Oeste 46 Oeste 0 -- -- 69
2020-06-12 02:00:00 9.2 24 Oeste 35 Oeste 0 -- -- 65
2020-06-12 01:00:00 10 21 Noroeste 39 Noroeste 0 -- -- 64
2020-06-12 00:00:00 10.9 26 Noroeste 39 Oeste 0 -- -- 60
2020-06-11 23:00:00 11.9 26 Noroeste 42 Noroeste 0 -- -- 60
2020-06-11 22:00:00 13.7 28 Oeste 55 Oeste 0 -- -- 53
2020-06-11 21:00:00 14.7 28 Oeste 49 Oeste 0 -- -- 55
2020-06-11 20:00:00 15.4 15 Oeste 36 Oeste 0 -- -- 54
2020-06-11 19:00:00 15.3 23 Oeste 43 Oeste 0 -- -- 52
2020-06-11 18:00:00 16.4 33 Oeste 54 Oeste 0 -- -- 48
2020-06-11 17:00:00 17.2 33 Oeste 55 Oeste 0 -- -- 45
2020-06-11 16:00:00 17.1 34 Oeste 54 Oeste 0 -- -- 51
2020-06-11 15:00:00 14.6 32 Oeste 51 Oeste 0 -- -- 59
2020-06-11 14:00:00 14.8 36 Oeste 51 Oeste 0 -- -- 63
2020-06-11 13:00:00 16.1 31 Oeste 46 Oeste 0 -- -- 60
2020-06-11 12:00:00 15.4 28 Oeste 42 Oeste 0 -- -- 63
2020-06-11 11:00:00 13.6 32 Oeste 51 Oeste 0 -- -- 67
2020-06-11 10:00:00 12.5 32 Oeste 43 Oeste 0 -- -- 73
2020-06-11 09:00:00 11.8 23 Oeste 39 Oeste 0 -- -- 75
2020-06-11 08:00:00 11 26 Oeste 37 Oeste 0 -- -- 77
2020-06-11 07:00:00 10.8 20 Oeste 33 Oeste 0 -- -- 76
2020-06-11 06:00:00 11.5 21 Oeste 33 Oeste 0 -- -- 71
2020-06-11 05:00:00 12.1 13 Oeste 21 Oeste 0 -- -- 65
2020-06-11 04:00:00 12.5 11 Oeste 25 Oeste 0 -- -- 63
2020-06-11 03:00:00 13.5 16 Oeste 28 Oeste 0 -- -- 57
2020-06-11 02:00:00 13.2 3 Oeste 9 Sudoeste 0 -- -- 62
2020-06-11 01:00:00 13.8 6 Sur 12 Sur 0 -- -- 57
2020-06-11 00:00:00 14 7 Sur 12 Sudoeste 0 -- -- 54